createdAt,value
2018-07-12T00:00:18.932Z,15.62
2018-07-12T00:02:47.228Z,15.59
2018-07-12T00:05:15.523Z,15.64
2018-07-12T00:07:43.868Z,15.68
2018-07-12T00:10:12.176Z,15.63
2018-07-12T00:12:40.469Z,15.63
2018-07-12T00:15:08.808Z,15.64
2018-07-12T00:17:37.104Z,15.70
2018-07-12T00:20:05.406Z,15.68
2018-07-12T00:22:33.773Z,15.75
2018-07-12T00:25:02.077Z,15.73
2018-07-12T00:27:30.386Z,15.75
2018-07-12T00:29:58.715Z,15.81
2018-07-12T00:32:27.012Z,15.87
2018-07-12T00:34:55.309Z,15.89
2018-07-12T00:37:24.041Z,15.83
2018-07-12T00:39:52.552Z,15.83
2018-07-12T00:42:21.143Z,15.83
2018-07-12T00:44:49.473Z,15.82
2018-07-12T00:47:18.017Z,15.79
2018-07-12T00:49:46.308Z,15.83
2018-07-12T00:52:14.661Z,15.80
2018-07-12T00:54:43.472Z,15.82
2018-07-12T00:57:12.693Z,15.77
2018-07-12T00:59:41.541Z,15.66
2018-07-12T01:02:09.832Z,15.66
2018-07-12T01:04:38.158Z,15.71
2018-07-12T01:07:06.498Z,15.71
2018-07-12T01:09:34.797Z,15.62
2018-07-12T01:12:03.077Z,15.60
2018-07-12T01:14:31.426Z,15.63
2018-07-12T01:16:59.717Z,15.61
2018-07-12T01:19:28.005Z,15.60
2018-07-12T01:21:56.349Z,15.64
2018-07-12T01:24:24.641Z,15.62
2018-07-12T01:26:52.930Z,15.68
2018-07-12T01:29:21.295Z,15.65
2018-07-12T01:31:49.576Z,15.54
2018-07-12T01:34:17.855Z,15.48
2018-07-12T01:36:46.167Z,15.51
2018-07-12T01:39:14.452Z,15.56
2018-07-12T01:41:42.737Z,15.61
2018-07-12T01:44:11.072Z,15.62
2018-07-12T01:46:39.372Z,15.63
2018-07-12T01:49:07.671Z,15.66
2018-07-12T01:51:36.011Z,15.70
2018-07-12T01:54:04.288Z,15.66
2018-07-12T01:56:32.577Z,15.64
2018-07-12T01:59:01.161Z,15.63
2018-07-12T02:04:03.899Z,15.69
2018-07-12T02:06:32.228Z,15.70
2018-07-12T02:09:00.539Z,15.74
2018-07-12T02:14:02.134Z,15.73
2018-07-12T02:16:30.472Z,15.71
2018-07-12T02:18:58.764Z,15.74
2018-07-12T02:21:27.061Z,15.78
2018-07-12T02:23:55.410Z,15.82
2018-07-12T02:28:57.100Z,15.84
2018-07-12T02:31:25.393Z,15.84
2018-07-12T02:33:53.700Z,15.85
2018-07-12T02:36:22.036Z,15.86
2018-07-12T02:38:50.337Z,15.88
2018-07-12T02:41:18.888Z,15.90
2018-07-12T02:43:47.225Z,15.90
2018-07-12T02:46:15.504Z,15.98
2018-07-12T02:48:43.783Z,15.89
2018-07-12T02:51:12.127Z,15.92
2018-07-12T02:53:40.426Z,15.91
2018-07-12T02:56:08.725Z,15.94
2018-07-12T02:58:37.066Z,15.95
2018-07-12T03:01:05.365Z,16.03
2018-07-12T03:03:33.653Z,15.99
2018-07-12T03:06:02.017Z,16.00
2018-07-12T03:08:30.316Z,16.08
2018-07-12T03:10:58.609Z,16.04
2018-07-12T03:13:26.952Z,16.08
2018-07-12T03:15:55.249Z,16.04
2018-07-12T03:18:23.553Z,16.04
2018-07-12T03:20:51.888Z,16.02
2018-07-12T03:23:20.188Z,15.98
2018-07-12T03:25:48.489Z,16.00
2018-07-12T03:28:16.827Z,16.05
2018-07-12T03:30:45.108Z,16.10
2018-07-12T03:33:13.393Z,16.09
2018-07-12T03:35:41.731Z,16.09
2018-07-12T03:38:10.028Z,16.07
2018-07-12T03:40:38.351Z,16.07
2018-07-12T03:43:06.698Z,16.05
2018-07-12T03:45:35.069Z,16.04
2018-07-12T03:48:03.355Z,16.03
2018-07-12T03:50:31.702Z,16.03
2018-07-12T03:52:59.993Z,16.05
2018-07-12T03:55:28.308Z,16.05
2018-07-12T03:57:56.682Z,16.07
2018-07-12T04:00:24.956Z,16.11
2018-07-12T04:02:53.256Z,16.11
2018-07-12T04:05:21.600Z,16.14
2018-07-12T04:07:49.884Z,16.15
2018-07-12T04:10:18.172Z,16.13
2018-07-12T04:12:46.484Z,16.21
2018-07-12T04:15:14.780Z,16.16
2018-07-12T04:17:43.072Z,16.26
2018-07-12T04:20:11.404Z,16.25
2018-07-12T04:22:39.695Z,16.25
2018-07-12T04:25:07.968Z,16.25
2018-07-12T04:27:36.304Z,16.21
2018-07-12T04:30:04.592Z,16.25
2018-07-12T04:32:32.880Z,16.24
2018-07-12T04:35:01.213Z,16.28
2018-07-12T04:37:29.513Z,16.36
2018-07-12T04:39:57.796Z,16.35
2018-07-12T04:42:26.127Z,16.41
2018-07-12T04:44:54.419Z,16.42
2018-07-12T04:47:22.720Z,16.43
2018-07-12T04:49:51.077Z,16.44
2018-07-12T04:52:19.380Z,16.44
2018-07-12T04:54:47.666Z,16.43
2018-07-12T04:57:16.016Z,16.44
2018-07-12T04:59:44.316Z,16.51
2018-07-12T05:02:12.607Z,16.47
2018-07-12T05:04:40.931Z,16.42
2018-07-12T05:07:09.235Z,16.47
2018-07-12T05:09:37.528Z,16.47
2018-07-12T05:12:05.853Z,16.50
2018-07-12T05:14:34.151Z,16.50
2018-07-12T05:17:02.440Z,16.55
2018-07-12T05:19:30.764Z,16.52
2018-07-12T05:21:59.092Z,16.60
2018-07-12T05:24:27.372Z,16.64
2018-07-12T05:26:55.701Z,16.65
2018-07-12T05:29:23.995Z,16.71
2018-07-12T05:31:52.280Z,16.65
2018-07-12T05:34:20.637Z,16.76
2018-07-12T05:37:00.400Z,16.78
2018-07-12T05:39:30.111Z,16.86
2018-07-12T05:41:59.800Z,16.91
2018-07-12T05:44:29.454Z,16.90
2018-07-12T05:46:59.233Z,16.94
2018-07-12T05:49:28.888Z,16.93
2018-07-12T05:51:58.576Z,16.96
2018-07-12T05:54:28.483Z,16.98
2018-07-12T05:56:58.127Z,17.05
2018-07-12T05:59:27.753Z,17.11
2018-07-12T06:02:08.617Z,17.21
2018-07-12T06:04:38.292Z,17.13
2018-07-12T06:07:07.959Z,17.12
2018-07-12T06:09:37.651Z,17.12
2018-07-12T06:12:07.325Z,17.18
2018-07-12T06:14:36.947Z,17.20
2018-07-12T06:17:06.624Z,17.40
2018-07-12T06:19:36.267Z,17.65
2018-07-12T06:22:06.017Z,17.79
2018-07-12T06:24:35.783Z,17.77
2018-07-12T06:27:05.582Z,17.75
2018-07-12T06:29:35.337Z,17.69
2018-07-12T06:32:05.080Z,17.68
2018-07-12T06:34:34.780Z,17.66
2018-07-12T06:37:04.501Z,17.76
2018-07-12T06:39:34.185Z,17.82
2018-07-12T06:42:03.853Z,17.89
2018-07-12T06:44:33.521Z,17.98
2018-07-12T06:47:03.181Z,18.03
2018-07-12T06:49:32.892Z,18.16
2018-07-12T06:52:02.592Z,18.27
2018-07-12T06:54:32.232Z,18.42
2018-07-12T06:57:01.877Z,18.62
2018-07-12T06:59:31.580Z,18.69
2018-07-12T07:02:01.245Z,18.53
2018-07-12T07:04:30.924Z,18.52
2018-07-12T07:07:00.641Z,18.45
2018-07-12T07:09:30.304Z,18.36
2018-07-12T07:11:59.952Z,18.56
2018-07-12T07:14:29.656Z,18.61
2018-07-12T07:16:59.309Z,18.87
2018-07-12T07:19:28.959Z,19.03
2018-07-12T07:21:58.679Z,19.21
2018-07-12T07:24:28.357Z,19.29
2018-07-12T07:26:58.024Z,19.52
2018-07-12T07:29:27.760Z,19.61
2018-07-12T07:31:57.505Z,19.60
2018-07-12T07:34:27.372Z,19.66
2018-07-12T07:36:57.049Z,19.67
2018-07-12T07:39:26.767Z,19.86
2018-07-12T07:41:56.461Z,20.18
2018-07-12T07:44:26.129Z,20.38
2018-07-12T07:46:55.785Z,20.54
2018-07-12T07:49:25.826Z,20.55
2018-07-12T07:51:55.363Z,20.67
2018-07-12T07:54:31.639Z,20.87
2018-07-12T07:57:01.298Z,20.84
2018-07-12T07:59:30.964Z,20.92
2018-07-12T08:02:00.713Z,21.07
2018-07-12T08:04:30.432Z,21.27
2018-07-12T08:07:00.133Z,21.40
2018-07-12T08:09:29.906Z,21.61
2018-07-12T08:11:59.614Z,21.57
2018-07-12T08:14:29.300Z,21.56
2018-07-12T08:16:59.082Z,21.39
2018-07-12T08:19:28.804Z,21.31
2018-07-12T08:22:08.305Z,21.50
2018-07-12T08:24:38.037Z,21.67
2018-07-12T08:27:07.745Z,21.91
2018-07-12T08:29:37.415Z,22.02
2018-07-12T08:32:07.182Z,22.12
2018-07-12T08:34:36.880Z,22.21
2018-07-12T08:37:06.632Z,22.14
2018-07-12T08:39:36.297Z,22.40
2018-07-12T08:42:06.017Z,22.48
2018-07-12T08:44:35.720Z,22.75
2018-07-12T08:47:05.530Z,22.84
2018-07-12T08:49:35.243Z,22.88
2018-07-12T08:52:04.924Z,22.86
2018-07-12T08:54:34.623Z,22.74
2018-07-12T08:57:04.350Z,22.68
2018-07-12T08:59:34.000Z,23.02
2018-07-12T09:02:04.614Z,23.36
2018-07-12T09:04:34.309Z,23.18
2018-07-12T09:07:03.941Z,23.38
2018-07-12T09:09:33.685Z,23.65
2018-07-12T09:12:03.349Z,23.62
2018-07-12T09:14:33.016Z,23.68
2018-07-12T09:17:02.812Z,23.60
2018-07-12T09:19:32.470Z,23.40
2018-07-12T09:22:02.205Z,23.51
2018-07-12T09:24:31.868Z,23.82
2018-07-12T09:27:01.524Z,23.95
2018-07-12T09:29:31.216Z,24.29
2018-07-12T09:32:00.887Z,24.43
2018-07-12T09:34:30.605Z,24.31
2018-07-12T09:37:00.327Z,24.15
2018-07-12T09:39:30.009Z,24.07
2018-07-12T09:41:59.748Z,23.88
2018-07-12T09:44:29.405Z,23.74
2018-07-12T09:46:59.170Z,23.98
2018-07-12T09:49:28.834Z,24.04
2018-07-12T09:51:58.488Z,24.05
2018-07-12T09:54:28.184Z,24.46
2018-07-12T09:57:08.908Z,24.82
2018-07-12T09:59:38.616Z,24.77
2018-07-12T10:02:13.321Z,25.11
2018-07-12T10:04:42.996Z,25.04
2018-07-12T10:07:17.865Z,24.79
2018-07-12T10:09:52.706Z,24.53
2018-07-12T10:12:27.508Z,24.66
2018-07-12T10:15:02.655Z,25.11
2018-07-12T10:17:37.572Z,25.42
2018-07-12T10:20:07.269Z,25.55
2018-07-12T10:22:36.899Z,25.40
2018-07-12T10:25:07.177Z,25.13
2018-07-12T10:27:36.803Z,25.17
2018-07-12T10:30:06.445Z,25.34
2018-07-12T10:32:36.120Z,25.65
2018-07-12T10:35:05.909Z,25.94
2018-07-12T10:37:35.526Z,26.19
2018-07-12T10:40:05.220Z,26.28
2018-07-12T10:42:34.832Z,26.21
2018-07-12T10:45:04.491Z,26.41
2018-07-12T10:47:34.188Z,26.61
2018-07-12T10:50:03.816Z,26.76
2018-07-12T10:52:33.440Z,26.86
2018-07-12T10:55:03.115Z,27.09
2018-07-12T10:57:32.754Z,27.16
2018-07-12T11:00:02.373Z,26.93
2018-07-12T11:02:32.043Z,27.16
2018-07-12T11:05:01.732Z,27.20
2018-07-12T11:07:31.376Z,27.30
2018-07-12T11:10:01.085Z,27.47
2018-07-12T11:12:30.720Z,27.42
2018-07-12T11:15:00.355Z,27.44
2018-07-12T11:17:30.072Z,27.65
2018-07-12T11:20:00.082Z,27.77
2018-07-12T11:22:29.760Z,27.40
2018-07-12T11:24:59.412Z,26.90
2018-07-12T11:27:29.075Z,27.02
2018-07-12T11:29:59.759Z,27.29
2018-07-12T11:32:29.416Z,27.36
2018-07-12T11:34:59.034Z,27.37
2018-07-12T11:37:28.727Z,27.53
2018-07-12T11:39:58.404Z,27.62
2018-07-12T11:42:28.048Z,27.89
2018-07-12T11:44:57.692Z,28.13
2018-07-12T11:47:27.344Z,28.34
2018-07-12T11:49:57.064Z,28.18
2018-07-12T11:52:26.704Z,28.25
2018-07-12T11:54:56.433Z,28.43
2018-07-12T11:57:26.085Z,28.63
2018-07-12T11:59:55.696Z,28.61
2018-07-12T12:02:25.403Z,28.36
2018-07-12T12:04:55.115Z,28.06
2018-07-12T12:07:24.789Z,27.59
2018-07-12T12:09:54.471Z,27.09
2018-07-12T12:12:24.147Z,26.85
2018-07-12T12:14:53.840Z,26.49
2018-07-12T12:17:23.515Z,26.19
2018-07-12T12:19:53.150Z,25.94
2018-07-12T12:22:22.771Z,25.74
2018-07-12T12:24:52.628Z,25.64
2018-07-12T12:27:22.304Z,25.60
2018-07-12T12:29:51.908Z,25.57
2018-07-12T12:32:21.581Z,25.57
2018-07-12T12:34:51.199Z,25.59
2018-07-12T12:37:20.816Z,25.63
2018-07-12T12:39:50.483Z,25.85
2018-07-12T12:42:20.098Z,26.07
2018-07-12T12:44:49.711Z,26.56
2018-07-12T12:47:19.379Z,27.09
2018-07-12T12:49:49.048Z,27.58
2018-07-12T12:52:18.751Z,27.96
2018-07-12T12:54:48.980Z,28.45
2018-07-12T12:57:19.107Z,28.79
2018-07-12T12:59:48.776Z,29.24
2018-07-12T13:02:18.552Z,29.62
2018-07-12T13:04:48.235Z,29.25
2018-07-12T13:07:17.865Z,28.73
2018-07-12T13:09:47.532Z,28.19
2018-07-12T13:12:17.173Z,28.53
2018-07-12T13:14:47.001Z,28.97
2018-07-12T13:17:16.703Z,29.35
2018-07-12T13:19:46.347Z,29.69
2018-07-12T13:22:16.007Z,29.82
2018-07-12T13:24:45.692Z,29.84
2018-07-12T13:27:15.356Z,29.69
2018-07-12T13:29:45.264Z,29.77
2018-07-12T13:32:14.918Z,29.90
2018-07-12T13:34:44.533Z,29.86
2018-07-12T13:37:14.223Z,30.06
2018-07-12T13:39:43.856Z,30.18
2018-07-12T13:42:13.480Z,29.70
2018-07-12T13:44:43.166Z,29.44
2018-07-12T13:47:12.791Z,29.21
2018-07-12T13:49:42.395Z,28.81
2018-07-12T13:52:12.146Z,28.65
2018-07-12T13:54:41.764Z,28.62
2018-07-12T13:57:11.403Z,28.57
2018-07-12T13:59:41.106Z,28.47
2018-07-12T14:02:10.751Z,28.30
2018-07-12T14:04:40.394Z,27.95
2018-07-12T14:07:10.091Z,28.28
2018-07-12T14:09:39.693Z,28.22
2018-07-12T14:12:09.324Z,28.28
2018-07-12T14:14:39.040Z,28.36
2018-07-12T14:17:08.678Z,28.48
2018-07-12T14:19:38.332Z,28.75
2018-07-12T14:22:08.000Z,28.70
2018-07-12T14:24:37.651Z,28.69
2018-07-12T14:27:07.341Z,28.98
2018-07-12T14:29:36.980Z,28.85
2018-07-12T14:32:06.635Z,29.07
2018-07-12T14:34:36.283Z,29.07
2018-07-12T14:37:05.925Z,29.05
2018-07-12T14:39:35.534Z,29.08
2018-07-12T14:42:05.220Z,29.03
2018-07-12T14:44:34.849Z,29.05
2018-07-12T14:47:04.525Z,28.91
2018-07-12T14:49:34.180Z,28.84
2018-07-12T14:52:03.828Z,28.74
2018-07-12T14:54:33.510Z,28.72
2018-07-12T14:57:03.193Z,28.54
2018-07-12T14:59:32.807Z,28.53
2018-07-12T15:02:02.492Z,28.66
2018-07-12T15:04:32.184Z,28.67
2018-07-12T15:07:01.812Z,28.68
2018-07-12T15:09:31.453Z,28.63
2018-07-12T15:12:01.121Z,28.51
2018-07-12T15:14:30.734Z,28.50
2018-07-12T15:17:00.388Z,28.52
2018-07-12T15:19:30.096Z,28.49
2018-07-12T15:21:59.739Z,28.43
2018-07-12T15:24:29.365Z,28.46
2018-07-12T15:26:59.056Z,28.44
2018-07-12T15:29:28.707Z,28.55
2018-07-12T15:31:58.324Z,28.35
2018-07-12T15:34:27.989Z,28.30
2018-07-12T15:36:57.639Z,28.34
2018-07-12T15:39:27.505Z,28.32
2018-07-12T15:41:57.115Z,28.25
2018-07-12T15:44:26.754Z,28.10
2018-07-12T15:46:56.411Z,28.05
2018-07-12T15:49:26.040Z,27.99
2018-07-12T15:51:55.681Z,27.85
2018-07-12T15:54:25.397Z,27.60
2018-07-12T15:56:55.032Z,27.52
2018-07-12T15:59:24.656Z,27.33
2018-07-12T16:01:54.410Z,27.18
2018-07-12T16:04:24.055Z,27.03
2018-07-12T16:06:53.844Z,26.89
2018-07-12T16:09:23.496Z,26.83
2018-07-12T16:11:53.112Z,26.71
2018-07-12T16:14:22.844Z,26.66
2018-07-12T16:16:52.583Z,26.61
2018-07-12T16:19:22.196Z,26.45
2018-07-12T16:21:51.812Z,26.23
2018-07-12T16:24:21.459Z,26.03
2018-07-12T16:26:51.153Z,25.89
2018-07-12T16:29:20.763Z,25.77
2018-07-12T16:31:50.455Z,25.62
2018-07-12T16:34:20.104Z,25.46
2018-07-12T16:36:49.721Z,25.32
2018-07-12T16:39:19.368Z,25.17
2018-07-12T16:41:49.026Z,25.08
2018-07-12T16:44:18.932Z,25.04
2018-07-12T16:46:48.600Z,24.88
2018-07-12T16:49:18.219Z,24.86
2018-07-12T16:51:47.883Z,24.84
2018-07-12T16:54:17.640Z,24.84
2018-07-12T16:56:47.279Z,24.75
2018-07-12T16:59:16.893Z,24.69
2018-07-12T17:01:46.560Z,24.61
2018-07-12T17:04:16.227Z,24.65
2018-07-12T17:06:45.837Z,24.71
2018-07-12T17:09:15.512Z,24.66
2018-07-12T17:11:45.180Z,24.73
2018-07-12T17:14:14.787Z,24.80
2018-07-12T17:16:44.396Z,24.83
2018-07-12T17:19:14.071Z,24.75
2018-07-12T17:21:43.675Z,24.79
2018-07-12T17:24:13.295Z,24.78
2018-07-12T17:26:43.128Z,24.73
2018-07-12T17:29:12.748Z,24.67
2018-07-12T17:31:42.387Z,24.77
2018-07-12T17:34:12.052Z,24.80
2018-07-12T17:36:41.675Z,24.70
2018-07-12T17:39:11.289Z,24.72
2018-07-12T17:41:40.980Z,24.76
2018-07-12T17:44:10.604Z,24.74
2018-07-12T17:46:40.264Z,24.79
2018-07-12T17:49:09.915Z,24.77
2018-07-12T17:51:39.564Z,24.77
2018-07-12T17:54:09.275Z,24.76
2018-07-12T17:56:38.900Z,24.74
2018-07-12T17:59:08.591Z,24.75
2018-07-12T18:01:38.264Z,24.72
2018-07-12T18:04:07.896Z,24.76
2018-07-12T18:06:37.488Z,24.75
2018-07-12T18:09:07.979Z,24.72
2018-07-12T18:11:37.600Z,24.68
2018-07-12T18:14:07.260Z,24.64
2018-07-12T18:16:36.860Z,24.56
2018-07-12T18:19:06.584Z,24.43
2018-07-12T18:21:36.215Z,24.33
2018-07-12T18:24:05.880Z,24.28
2018-07-12T18:26:35.512Z,24.24
2018-07-12T18:29:05.156Z,24.19
2018-07-12T18:31:34.776Z,24.09
2018-07-12T18:34:04.404Z,24.16
2018-07-12T18:36:34.064Z,24.14
2018-07-12T18:39:05.120Z,24.07
2018-07-12T18:41:34.791Z,23.99
2018-07-12T18:44:04.515Z,23.88
2018-07-12T18:46:34.148Z,23.88
2018-07-12T18:49:03.761Z,23.84
2018-07-12T18:51:33.371Z,23.80
2018-07-12T18:54:03.159Z,23.75
2018-07-12T18:56:32.756Z,23.71
2018-07-12T18:59:02.369Z,23.72
2018-07-12T19:01:32.076Z,23.65
2018-07-12T19:04:01.704Z,23.58
2018-07-12T19:06:31.424Z,23.57
2018-07-12T19:09:01.276Z,23.52
2018-07-12T19:11:30.919Z,23.53
2018-07-12T19:14:00.520Z,23.46
2018-07-12T19:16:30.200Z,23.33
2018-07-12T19:18:59.800Z,23.29
2018-07-12T19:21:29.436Z,23.28
2018-07-12T19:23:59.121Z,23.19
2018-07-12T19:26:28.744Z,23.12
2018-07-12T19:28:58.409Z,23.06
2018-07-12T19:31:28.138Z,23.05
2018-07-12T19:33:57.759Z,23.00
2018-07-12T19:36:27.487Z,22.96
2018-07-12T19:38:57.202Z,22.87
2018-07-12T19:41:26.945Z,22.88
2018-07-12T19:43:56.656Z,22.86
2018-07-12T19:46:26.343Z,22.77
2018-07-12T19:48:56.073Z,22.73
2018-07-12T19:51:25.720Z,22.68
2018-07-12T19:53:55.380Z,22.60
2018-07-12T19:56:25.016Z,22.56
2018-07-12T19:58:54.640Z,22.47
2018-07-12T20:01:24.319Z,22.44
2018-07-12T20:03:53.975Z,22.41
2018-07-12T20:06:23.640Z,22.36
2018-07-12T20:08:53.291Z,22.34
2018-07-12T20:11:22.976Z,22.31
2018-07-12T20:13:52.597Z,22.34
2018-07-12T20:16:22.264Z,22.34
2018-07-12T20:18:51.871Z,22.29
2018-07-12T20:21:21.535Z,22.26
2018-07-12T20:23:51.227Z,22.26
2018-07-12T20:26:20.873Z,22.28
2018-07-12T20:28:50.463Z,22.23
2018-07-12T20:31:20.107Z,22.17
2018-07-12T20:33:49.852Z,22.12
2018-07-12T20:36:19.550Z,22.04
2018-07-12T20:38:49.160Z,21.98
2018-07-12T20:41:18.785Z,21.99
2018-07-12T20:43:48.449Z,21.89
2018-07-12T20:46:18.068Z,21.84
2018-07-12T20:48:47.692Z,21.80
2018-07-12T20:51:17.368Z,21.83
2018-07-12T20:53:46.992Z,21.80
2018-07-12T20:56:16.680Z,21.72
2018-07-12T20:58:46.284Z,21.63
2018-07-12T21:01:15.921Z,21.54
2018-07-12T21:03:45.580Z,21.55
2018-07-12T21:06:15.211Z,21.52
2018-07-12T21:08:44.834Z,21.40
2018-07-12T21:11:14.787Z,21.29
2018-07-12T21:13:44.412Z,21.28
2018-07-12T21:16:14.144Z,21.23
2018-07-12T21:18:43.776Z,21.18
2018-07-12T21:21:13.403Z,21.18
2018-07-12T21:23:43.162Z,21.21
2018-07-12T21:26:12.749Z,21.19
2018-07-12T21:28:42.375Z,21.14
2018-07-12T21:31:12.052Z,21.08
2018-07-12T21:33:41.772Z,21.06
2018-07-12T21:36:11.348Z,20.95
2018-07-12T21:38:41.089Z,20.90
2018-07-12T21:41:10.717Z,20.89
2018-07-12T21:43:40.351Z,20.86
2018-07-12T21:46:10.096Z,20.87
2018-07-12T21:48:39.717Z,20.76
2018-07-12T21:51:09.579Z,20.74
2018-07-12T21:53:39.207Z,20.58
2018-07-12T21:56:08.848Z,20.56
2018-07-12T21:58:38.528Z,20.36
2018-07-12T22:01:08.152Z,20.24
2018-07-12T22:03:37.783Z,20.14
2018-07-12T22:06:07.452Z,20.25
2018-07-12T22:08:37.080Z,20.22
2018-07-12T22:11:07.312Z,20.17
2018-07-12T22:13:37.919Z,20.20
2018-07-12T22:16:07.679Z,20.20
2018-07-12T22:18:37.315Z,20.23
2018-07-12T22:21:06.996Z,20.28
2018-07-12T22:23:36.863Z,20.25
2018-07-12T22:26:06.506Z,20.21
2018-07-12T22:28:36.203Z,20.04
2018-07-12T22:31:05.848Z,20.08
2018-07-12T22:33:35.480Z,20.08
2018-07-12T22:36:05.216Z,20.09
2018-07-12T22:38:34.854Z,20.01
2018-07-12T22:41:04.513Z,19.90
2018-07-12T22:43:34.180Z,19.80
2018-07-12T22:46:03.800Z,19.84
2018-07-12T22:48:33.509Z,19.91
2018-07-12T22:51:03.120Z,19.95
2018-07-12T22:53:32.747Z,19.86
2018-07-12T22:56:02.379Z,19.75
2018-07-12T22:58:32.051Z,19.75
2018-07-12T23:01:01.680Z,19.67
2018-07-12T23:03:31.304Z,19.60
2018-07-12T23:06:00.959Z,19.47
2018-07-12T23:08:30.583Z,19.53
2018-07-12T23:11:00.251Z,19.44
2018-07-12T23:13:29.900Z,19.37
2018-07-12T23:15:59.548Z,19.36
2018-07-12T23:18:29.235Z,19.30
2018-07-12T23:20:58.864Z,19.28
2018-07-12T23:23:28.480Z,19.25
2018-07-12T23:25:58.167Z,19.20
2018-07-12T23:28:27.800Z,19.12
2018-07-12T23:30:57.484Z,19.16
2018-07-12T23:33:27.156Z,19.21
2018-07-12T23:35:56.796Z,19.17
2018-07-12T23:38:26.472Z,18.99
2018-07-12T23:40:56.090Z,19.03
2018-07-12T23:43:25.719Z,19.02
2018-07-12T23:45:55.392Z,18.94
2018-07-12T23:48:25.028Z,18.91
2018-07-12T23:50:54.644Z,18.84
2018-07-12T23:53:24.311Z,18.84
2018-07-12T23:55:53.964Z,18.73
2018-07-12T23:58:23.676Z,18.65
